Time;durP1;ratioP1;P1;durP2;ratioP2;P2;SDS_P1;SDS_P2;PMS_P1;PMS_P2;Temp;Humidity;BMP_temperature;BMP_pressure;BME280_temperature;BME280_humidity;BME280_pressure;Samples;Min_cycle;Max_cycle;Signal;HPM_P1;HPM_P2
2023/08/17 00:01:01;;;;;;;4.57;1.10;;;18.90;99.90;;;;;;5020814;28;20020;-75
2023/08/17 00:03:27;;;;;;;2.83;0.65;;;18.90;99.90;;;;;;5003134;28;20550;-74
2023/08/17 00:05:53;;;;;;;3.13;0.65;;;18.90;99.90;;;;;;4998983;28;20479;-72
2023/08/17 00:08:20;;;;;;;4.20;0.75;;;18.90;99.90;;;;;;4997717;28;21195;-73
2023/08/17 00:10:47;;;;;;;5.18;0.80;;;18.90;99.90;;;;;;5012076;28;20040;-72
2023/08/17 00:13:14;;;;;;;3.03;0.60;;;18.90;99.90;;;;;;5008677;28;23188;-75
2023/08/17 00:15:41;;;;;;;6.43;0.70;;;18.90;99.90;;;;;;5014442;28;20040;-73
2023/08/17 00:18:07;;;;;;;2.30;0.77;;;18.90;99.90;;;;;;5014730;28;20067;-75
2023/08/17 00:20:34;;;;;;;4.40;0.73;;;18.90;99.90;;;;;;5021001;28;20046;-75
2023/08/17 00:23:00;;;;;;;5.03;1.30;;;18.90;99.90;;;;;;5020520;28;20020;-75
2023/08/17 00:25:26;;;;;;;2.10;0.68;;;18.90;99.90;;;;;;5015518;28;20028;-73
2023/08/17 00:27:53;;;;;;;3.20;0.82;;;18.90;99.90;;;;;;4996834;28;20044;-75
2023/08/17 00:30:19;;;;;;;3.97;0.80;;;18.80;99.90;;;;;;5010478;28;20037;-72
2023/08/17 00:32:46;;;;;;;3.15;0.90;;;18.80;99.90;;;;;;4994197;28;20496;-73
2023/08/17 00:35:12;;;;;;;2.67;0.60;;;18.80;99.90;;;;;;4995679;28;20323;-73
2023/08/17 00:37:39;;;;;;;2.15;0.60;;;18.80;99.90;;;;;;4995695;28;20056;-72
2023/08/17 00:40:06;;;;;;;2.45;0.77;;;18.80;99.90;;;;;;4999287;28;20044;-72
2023/08/17 00:42:32;;;;;;;3.15;1.02;;;18.80;99.90;;;;;;5020908;28;20040;-74
2023/08/17 00:44:59;;;;;;;3.20;0.93;;;18.80;99.90;;;;;;5003776;28;20032;-74
2023/08/17 00:47:26;;;;;;;4.07;1.25;;;18.70;99.90;;;;;;5006756;28;20704;-75
2023/08/17 00:49:53;;;;;;;3.65;1.00;;;18.70;99.90;;;;;;5010468;28;20041;-74
2023/08/17 00:52:19;;;;;;;3.95;0.60;;;18.70;99.90;;;;;;4991934;28;21153;-73
2023/08/17 00:54:46;;;;;;;4.65;0.80;;;18.70;99.90;;;;;;5008035;28;20037;-72
2023/08/17 00:57:14;;;;;;;4.75;0.70;;;18.70;99.90;;;;;;4992361;28;23217;-76
2023/08/17 00:59:40;;;;;;;2.67;0.75;;;18.60;99.90;;;;;;4991619;28;20056;-75
2023/08/17 01:02:08;;;;;;;2.55;0.75;;;18.60;99.90;;;;;;5017409;28;20510;-73
2023/08/17 01:04:37;;;;;;;2.60;0.73;;;18.60;99.90;;;;;;4998878;28;20029;-74
2023/08/17 01:07:04;;;;;;;2.70;0.63;;;18.60;99.90;;;;;;5003057;28;20033;-74
2023/08/17 01:09:33;;;;;;;4.00;0.70;;;18.60;99.90;;;;;;5010974;28;20048;-74
2023/08/17 01:12:26;;;;;;;2.35;0.80;;;18.60;99.90;;;;;;5009752;28;20044;-73
2023/08/17 01:15:10;;;;;;;2.08;0.65;;;18.60;99.90;;;;;;5010587;28;20519;-73
2023/08/17 01:17:40;;;;;;;4.68;0.80;;;18.60;99.90;;;;;;4990639;28;20032;-73
2023/08/17 01:20:13;;;;;;;2.47;0.63;;;18.50;99.90;;;;;;5010971;28;20037;-73
2023/08/17 01:22:45;;;;;;;3.15;0.82;;;18.50;99.90;;;;;;5025718;28;20029;-73
2023/08/17 01:25:12;;;;;;;2.28;0.60;;;18.50;99.90;;;;;;5018673;28;20048;-72
2023/08/17 01:27:44;;;;;;;2.83;0.73;;;18.50;99.90;;;;;;5019636;28;20029;-72
2023/08/17 01:30:14;;;;;;;1.83;0.77;;;18.50;99.90;;;;;;4997868;28;20041;-74
2023/08/17 01:32:46;;;;;;;2.35;0.63;;;18.40;99.90;;;;;;4998606;28;20052;-74
2023/08/17 01:35:30;;;;;;;3.80;1.00;;;18.40;99.90;;;;;;5010699;28;20033;-73
2023/08/17 01:38:05;;;;;;;3.85;0.80;;;18.40;99.90;;;;;;4972431;28;20040;-74
2023/08/17 01:40:33;;;;;;;3.50;0.80;;;18.40;99.90;;;;;;4976560;28;20081;-71
2023/08/17 01:43:02;;;;;;;3.03;0.70;;;18.40;99.90;;;;;;4979015;28;20048;-75
2023/08/17 01:45:29;;;;;;;2.72;0.85;;;18.40;99.90;;;;;;5012032;28;21053;-75
2023/08/17 01:47:55;;;;;;;3.33;1.00;;;18.30;99.90;;;;;;5021521;28;20044;-73
2023/08/17 01:50:22;;;;;;;4.97;0.90;;;18.30;99.90;;;;;;5018578;28;20037;-73
2023/08/17 01:52:51;;;;;;;2.25;0.70;;;18.20;99.90;;;;;;5014565;28;20025;-73
2023/08/17 01:55:17;;;;;;;3.65;0.85;;;18.20;99.90;;;;;;4995651;28;20147;-73
2023/08/17 01:57:43;;;;;;;5.45;1.30;;;18.20;99.90;;;;;;5012519;28;20035;-75
2023/08/17 02:00:11;;;;;;;4.47;1.30;;;18.20;99.90;;;;;;4992969;28;20041;-74
2023/08/17 02:02:43;;;;;;;3.60;0.88;;;18.20;99.90;;;;;;5012684;28;20138;-74
2023/08/17 02:05:12;;;;;;;6.85;1.70;;;18.20;99.90;;;;;;5009220;28;20017;-74
2023/08/17 02:07:38;;;;;;;3.42;1.08;;;18.20;99.90;;;;;;5012472;28;20029;-72
2023/08/17 02:10:05;;;;;;;3.47;0.80;;;18.10;99.90;;;;;;5021441;28;20036;-74
2023/08/17 02:12:32;;;;;;;5.28;0.95;;;18.10;99.90;;;;;;5003337;28;20037;-75
2023/08/17 02:14:58;;;;;;;2.85;0.70;;;18.10;99.90;;;;;;4999856;28;20091;-74
2023/08/17 02:17:25;;;;;;;4.28;0.90;;;18.10;99.90;;;;;;4980984;28;20476;-74
2023/08/17 02:19:51;;;;;;;4.20;1.05;;;18.10;99.90;;;;;;5013007;28;20037;-73
2023/08/17 02:22:18;;;;;;;4.07;1.20;;;18.00;99.90;;;;;;5011162;28;20371;-75
2023/08/17 02:24:46;;;;;;;3.33;1.10;;;18.00;99.90;;;;;;5011530;28;20044;-72
2023/08/17 02:27:12;;;;;;;4.55;1.23;;;17.90;99.90;;;;;;5015929;28;20399;-74
2023/08/17 02:29:39;;;;;;;6.20;1.30;;;17.90;99.90;;;;;;5019762;28;20033;-76
2023/08/17 02:32:05;;;;;;;3.85;1.08;;;17.90;99.90;;;;;;4991601;28;20558;-76
2023/08/17 02:34:32;;;;;;;3.83;1.05;;;17.90;99.90;;;;;;5008098;28;20040;-75
2023/08/17 02:36:59;;;;;;;5.30;0.88;;;17.80;99.90;;;;;;5019760;28;20036;-74
2023/08/17 02:39:25;;;;;;;3.67;0.98;;;17.90;99.90;;;;;;4997536;28;20037;-72
2023/08/17 02:41:52;;;;;;;2.50;0.60;;;17.90;99.90;;;;;;5014839;28;20033;-75
2023/08/17 02:44:18;;;;;;;2.33;0.60;;;17.80;99.90;;;;;;4996219;28;23123;-75
2023/08/17 02:46:45;;;;;;;2.40;0.80;;;17.80;99.90;;;;;;5013040;28;20044;-71
2023/08/17 02:49:11;;;;;;;2.33;1.00;;;17.90;99.90;;;;;;4993581;28;20851;-73
2023/08/17 02:51:38;;;;;;;4.20;0.90;;;17.90;99.90;;;;;;5016738;28;20035;-74
2023/08/17 02:54:05;;;;;;;4.78;1.00;;;17.90;99.90;;;;;;5020602;28;20039;-72
2023/08/17 02:56:31;;;;;;;3.65;1.00;;;17.80;99.90;;;;;;5005962;28;20041;-72
2023/08/17 02:58:58;;;;;;;3.22;0.70;;;17.80;99.90;;;;;;4999215;28;20036;-75
2023/08/17 03:01:24;;;;;;;3.92;1.38;;;17.80;99.90;;;;;;4979915;28;20500;-75
2023/08/17 03:03:51;;;;;;;3.85;1.13;;;17.80;99.90;;;;;;5014186;28;20504;-73
2023/08/17 03:06:17;;;;;;;3.15;0.93;;;17.80;99.90;;;;;;4997655;28;20064;-74
2023/08/17 03:08:44;;;;;;;3.45;0.70;;;17.70;99.90;;;;;;4977785;28;20044;-73
2023/08/17 03:11:11;;;;;;;3.42;1.17;;;17.70;99.90;;;;;;5010009;28;20037;-72
2023/08/17 03:13:38;;;;;;;2.92;0.93;;;17.80;99.90;;;;;;4999161;28;20393;-73
2023/08/17 03:16:04;;;;;;;5.38;0.90;;;17.70;99.90;;;;;;5021624;28;20036;-71
2023/08/17 03:18:31;;;;;;;3.65;0.90;;;17.70;99.90;;;;;;5003174;28;20883;-72
2023/08/17 03:20:57;;;;;;;3.80;1.00;;;17.70;99.90;;;;;;4990136;28;20048;-74
2023/08/17 03:23:24;;;;;;;2.45;1.10;;;17.60;99.90;;;;;;4995716;28;20036;-74
2023/08/17 03:25:53;;;;;;;2.72;0.93;;;17.60;99.90;;;;;;4996259;28;20044;-74
2023/08/17 03:28:20;;;;;;;4.38;1.25;;;17.50;99.90;;;;;;4993937;28;20030;-72
2023/08/17 03:30:46;;;;;;;3.45;0.73;;;17.50;99.90;;;;;;4995502;28;20499;-74
2023/08/17 03:33:13;;;;;;;5.35;1.15;;;17.40;99.90;;;;;;5008788;28;20051;-74
2023/08/17 03:35:39;;;;;;;2.58;0.70;;;17.30;99.90;;;;;;5005663;28;20041;-73
2023/08/17 03:38:08;;;;;;;5.40;0.98;;;17.20;99.90;;;;;;5004133;28;20401;-74
2023/08/17 03:40:34;;;;;;;7.00;1.30;;;17.30;99.90;;;;;;5020075;28;20044;-72
2023/08/17 03:43:01;;;;;;;2.35;1.00;;;17.20;99.90;;;;;;4994006;28;20033;-73
2023/08/17 03:45:27;;;;;;;3.55;0.90;;;17.10;99.90;;;;;;4979754;28;20034;-72
2023/08/17 03:47:54;;;;;;;4.47;1.10;;;17.10;99.90;;;;;;4994434;28;20041;-74
2023/08/17 03:50:21;;;;;;;3.08;1.20;;;17.10;99.90;;;;;;5009212;28;20370;-74
2023/08/17 03:52:48;;;;;;;3.88;1.10;;;17.10;99.90;;;;;;5011426;28;20043;-74
2023/08/17 03:55:14;;;;;;;2.92;1.05;;;17.00;99.90;;;;;;5012184;28;20033;-73
2023/08/17 03:57:41;;;;;;;5.95;1.25;;;17.00;99.90;;;;;;5002492;28;20028;-74
2023/08/17 04:00:09;;;;;;;6.47;1.30;;;17.00;99.90;;;;;;5003981;28;20506;-71
2023/08/17 04:02:42;;;;;;;2.92;1.10;;;16.90;99.90;;;;;;5021307;28;20040;-75
2023/08/17 04:05:12;;;;;;;5.60;1.20;;;16.80;99.90;;;;;;5011341;28;20044;-74
2023/08/17 04:07:39;;;;;;;6.95;1.20;;;16.90;99.90;;;;;;5007542;28;20075;-74
2023/08/17 04:10:07;;;;;;;4.40;1.17;;;16.80;99.90;;;;;;5005524;28;20048;-73
2023/08/17 04:12:33;;;;;;;6.00;1.20;;;16.80;99.90;;;;;;5025246;28;20459;-75
2023/08/17 04:15:00;;;;;;;4.72;1.08;;;16.70;99.90;;;;;;4994381;28;20431;-75
2023/08/17 04:17:26;;;;;;;5.00;0.93;;;16.70;99.90;;;;;;5011517;28;20025;-73
2023/08/17 04:19:53;;;;;;;2.53;0.70;;;16.70;99.90;;;;;;5033513;28;20041;-76
2023/08/17 04:22:20;;;;;;;5.85;1.15;;;16.70;99.90;;;;;;4999948;28;20041;-73
2023/08/17 04:24:46;;;;;;;4.10;1.17;;;16.60;99.90;;;;;;5002243;28;20041;-74
2023/08/17 04:27:14;;;;;;;5.65;1.27;;;16.60;99.90;;;;;;4999296;28;20045;-75
2023/08/17 04:29:41;;;;;;;2.75;0.90;;;16.60;99.90;;;;;;4976897;28;20048;-75
2023/08/17 04:32:07;;;;;;;4.90;1.13;;;16.60;99.90;;;;;;4992912;28;20048;-72
2023/08/17 04:34:35;;;;;;;3.90;0.90;;;16.60;99.90;;;;;;4995389;28;20032;-76
2023/08/17 04:37:02;;;;;;;2.28;0.80;;;16.60;99.90;;;;;;5011230;28;20399;-74
2023/08/17 04:39:29;;;;;;;4.72;1.10;;;16.60;99.90;;;;;;5010730;28;20025;-75
2023/08/17 04:41:56;;;;;;;4.60;0.80;;;16.60;99.90;;;;;;5013996;28;20044;-72
2023/08/17 04:44:29;;;;;;;;;;;16.60;99.90;;;;;;5000568;28;20025;-73
2023/08/17 04:46:55;;;;;;;4.40;0.93;;;16.60;99.90;;;;;;5023843;28;20718;-74
2023/08/17 04:49:22;;;;;;;3.20;0.98;;;16.60;99.90;;;;;;5011062;28;20044;-74
2023/08/17 04:51:48;;;;;;;3.45;0.90;;;16.60;99.90;;;;;;4994373;28;20037;-74
2023/08/17 04:54:14;;;;;;;3.25;0.93;;;16.70;99.90;;;;;;5008184;28;20060;-72
2023/08/17 04:56:43;;;;;;;3.22;0.80;;;16.70;99.90;;;;;;5008969;28;20044;-74
2023/08/17 04:59:09;;;;;;;1.10;0.60;;;16.80;99.90;;;;;;4993119;28;20033;-74
2023/08/17 05:01:36;;;;;;;2.78;0.70;;;16.80;99.90;;;;;;4989824;28;20476;-72
2023/08/17 05:04:04;;;;;;;3.08;0.60;;;16.80;99.90;;;;;;5000132;28;20036;-74
2023/08/17 05:06:31;;;;;;;4.70;0.80;;;16.80;99.90;;;;;;5001785;28;20056;-75
2023/08/17 05:08:58;;;;;;;5.50;0.70;;;16.80;99.90;;;;;;5016002;28;20033;-72
2023/08/17 05:11:25;;;;;;;4.15;0.90;;;16.80;99.90;;;;;;4983431;28;20040;-74
2023/08/17 05:13:51;;;;;;;1.73;0.63;;;16.80;99.90;;;;;;4994254;28;20636;-73
2023/08/17 05:16:17;;;;;;;5.22;0.98;;;16.80;99.90;;;;;;5010477;28;20045;-75
2023/08/17 05:18:45;;;;;;;4.07;0.82;;;16.90;99.90;;;;;;5010641;28;20535;-72
2023/08/17 05:21:14;;;;;;;6.45;0.70;;;16.90;99.90;;;;;;4992995;28;20037;-73
2023/08/17 05:23:40;;;;;;;4.25;0.95;;;17.00;99.90;;;;;;4990448;28;20058;-72
2023/08/17 05:26:07;;;;;;;2.95;0.63;;;17.10;99.90;;;;;;4993752;28;20487;-75
2023/08/17 05:28:34;;;;;;;4.45;1.17;;;17.20;99.90;;;;;;5003366;28;20405;-72
2023/08/17 05:31:08;;;;;;;6.28;1.20;;;17.30;99.90;;;;;;5018371;28;20044;-72
2023/08/17 05:33:40;;;;;;;2.55;0.75;;;17.40;99.90;;;;;;4974174;28;20041;-71
2023/08/17 05:36:08;;;;;;;3.60;0.75;;;17.50;99.90;;;;;;5011514;28;20546;-74
2023/08/17 05:38:34;;;;;;;3.35;1.15;;;17.60;99.90;;;;;;5010765;28;20244;-73
2023/08/17 05:41:01;;;;;;;5.30;0.85;;;17.70;99.90;;;;;;5002349;28;20037;-74
2023/08/17 05:43:28;;;;;;;3.72;0.75;;;17.80;99.90;;;;;;4993833;28;20041;-75
2023/08/17 05:45:59;;;;;;;3.85;0.88;;;17.90;99.90;;;;;;5001026;28;20032;-75
2023/08/17 05:48:26;;;;;;;2.00;0.60;;;18.00;99.90;;;;;;5000581;28;20040;-76
2023/08/17 05:50:52;;;;;;;3.85;0.80;;;18.00;99.90;;;;;;5015269;28;20376;-75
2023/08/17 05:53:19;;;;;;;3.00;0.60;;;18.00;99.90;;;;;;5017469;28;20068;-74
2023/08/17 05:55:45;;;;;;;3.40;0.73;;;18.00;99.90;;;;;;5012800;28;20071;-72
2023/08/17 05:58:11;;;;;;;2.92;0.60;;;18.10;99.90;;;;;;4993991;28;20472;-74
2023/08/17 06:00:38;;;;;;;3.97;0.98;;;18.20;99.90;;;;;;5012319;28;20041;-75
2023/08/17 06:03:04;;;;;;;1.58;0.60;;;18.30;99.90;;;;;;5012205;28;20037;-73
2023/08/17 06:05:31;;;;;;;3.03;0.70;;;18.30;99.90;;;;;;5014405;28;20036;-74
2023/08/17 06:07:58;;;;;;;3.58;0.90;;;18.20;99.90;;;;;;5012308;28;20045;-73
2023/08/17 06:10:27;;;;;;;4.38;0.75;;;18.10;99.90;;;;;;5020275;28;20052;-75
2023/08/17 06:12:54;;;;;;;2.38;0.70;;;18.10;99.90;;;;;;5007875;28;20170;-74
2023/08/17 06:15:22;;;;;;;4.88;0.70;;;18.10;99.90;;;;;;5023551;28;20025;-74
2023/08/17 06:17:51;;;;;;;2.58;0.60;;;18.00;99.90;;;;;;4991307;28;20362;-73
2023/08/17 06:20:18;;;;;;;1.65;0.55;;;18.00;99.90;;;;;;5010854;28;20048;-73
2023/08/17 06:22:47;;;;;;;2.15;0.70;;;17.90;99.90;;;;;;5012261;28;20029;-73
2023/08/17 06:25:13;;;;;;;6.10;1.15;;;17.80;99.90;;;;;;5012190;28;20032;-72
2023/08/17 06:27:42;;;;;;;3.88;0.70;;;17.80;99.90;;;;;;5012998;28;20028;-75
2023/08/17 06:30:09;;;;;;;3.95;0.65;;;17.70;99.90;;;;;;4993545;28;20040;-76
2023/08/17 06:32:35;;;;;;;2.20;0.80;;;17.70;99.90;;;;;;4998204;28;20056;-74
2023/08/17 06:35:02;;;;;;;2.92;0.63;;;17.70;99.90;;;;;;5003918;28;20048;-72
2023/08/17 06:37:28;;;;;;;5.63;0.80;;;17.60;99.90;;;;;;5016914;28;20037;-72
2023/08/17 06:39:54;;;;;;;3.50;1.23;;;17.70;99.90;;;;;;5012759;28;20028;-74
2023/08/17 06:42:21;;;;;;;3.25;1.70;;;17.70;99.90;;;;;;4995254;28;20543;-75
2023/08/17 06:44:47;;;;;;;4.80;2.30;;;17.70;99.90;;;;;;5010433;28;20545;-75
2023/08/17 06:47:13;;;;;;;4.20;1.83;;;17.80;99.90;;;;;;5011626;28;20021;-72
2023/08/17 06:49:40;;;;;;;5.20;1.38;;;17.90;99.90;;;;;;5010026;28;20043;-73
2023/08/17 06:52:07;;;;;;;3.08;0.90;;;18.10;99.90;;;;;;5009931;28;20036;-74
2023/08/17 06:54:33;;;;;;;2.25;0.70;;;18.30;99.90;;;;;;5014783;28;20027;-76
2023/08/17 06:57:00;;;;;;;3.25;0.90;;;18.40;99.90;;;;;;5007086;28;20152;-73
2023/08/17 06:59:26;;;;;;;4.57;1.20;;;18.60;99.90;;;;;;5020051;28;20037;-73
2023/08/17 07:01:53;;;;;;;3.13;0.80;;;18.70;99.90;;;;;;5019288;28;20037;-75
2023/08/17 07:04:19;;;;;;;3.83;0.60;;;18.70;99.90;;;;;;4995422;28;20332;-75
2023/08/17 07:06:45;;;;;;;2.40;0.73;;;18.80;99.90;;;;;;5013060;28;20029;-74
2023/08/17 07:09:12;;;;;;;3.05;0.70;;;18.90;99.90;;;;;;4993901;28;20083;-72
2023/08/17 07:11:39;;;;;;;4.75;1.27;;;18.90;99.90;;;;;;4993726;28;20736;-75
2023/08/17 07:14:08;;;;;;;2.95;0.77;;;18.90;99.90;;;;;;5010547;28;20025;-72
2023/08/17 07:16:34;;;;;;;4.43;0.85;;;19.00;99.90;;;;;;5003598;28;20502;-76
2023/08/17 07:19:01;;;;;;;3.65;0.60;;;19.00;99.90;;;;;;5002955;28;20403;-75
2023/08/17 07:21:28;;;;;;;2.60;0.68;;;19.00;99.90;;;;;;5005044;28;20041;-75
2023/08/17 07:23:55;;;;;;;3.97;1.00;;;19.10;99.90;;;;;;5019675;28;20037;-75
2023/08/17 07:26:23;;;;;;;3.08;0.75;;;19.10;99.90;;;;;;4986325;28;21323;-77
2023/08/17 07:28:49;;;;;;;3.28;0.90;;;19.10;99.90;;;;;;4993747;28;20037;-80
2023/08/17 07:31:16;;;;;;;4.13;2.33;;;19.10;99.90;;;;;;5010560;28;20037;-73
2023/08/17 07:33:42;;;;;;;4.57;2.20;;;19.10;99.90;;;;;;4988319;28;20374;-73
2023/08/17 07:36:08;;;;;;;3.30;1.88;;;19.10;99.90;;;;;;5011238;28;20037;-76
2023/08/17 07:38:35;;;;;;;7.15;1.52;;;19.20;99.90;;;;;;4977976;28;20514;-73
2023/08/17 07:41:02;;;;;;;5.90;2.47;;;19.30;99.90;;;;;;5015648;28;20120;-74
2023/08/17 07:43:28;;;;;;;4.90;1.38;;;19.40;99.90;;;;;;5030626;28;20469;-71
2023/08/17 07:45:58;;;;;;;4.47;1.10;;;19.50;99.90;;;;;;5015355;28;20466;-76
2023/08/17 07:48:24;;;;;;;4.43;1.27;;;19.50;99.90;;;;;;5012232;28;20052;-70
2023/08/17 07:50:52;;;;;;;4.97;1.00;;;19.50;99.90;;;;;;4991054;28;21974;-73
2023/08/17 07:53:19;;;;;;;4.95;1.48;;;19.50;99.90;;;;;;4991875;28;20047;-75
2023/08/17 07:55:45;;;;;;;7.50;1.95;;;19.50;99.90;;;;;;4991713;28;20041;-74
2023/08/17 07:58:12;;;;;;;3.65;1.17;;;19.50;99.90;;;;;;4994533;28;20602;-72
2023/08/17 08:00:39;;;;;;;3.15;0.80;;;19.40;99.90;;;;;;4991932;28;20049;-73
2023/08/17 08:03:05;;;;;;;4.93;1.77;;;19.30;99.90;;;;;;5011415;28;20033;-73
2023/08/17 08:05:32;;;;;;;8.00;3.20;;;19.30;99.90;;;;;;5020062;28;20029;-75
2023/08/17 08:07:58;;;;;;;5.53;2.10;;;19.30;99.90;;;;;;5000822;28;20036;-75
2023/08/17 08:10:25;;;;;;;7.70;3.03;;;19.30;99.90;;;;;;5011580;28;20041;-77
2023/08/17 08:12:51;;;;;;;4.25;1.30;;;19.20;99.90;;;;;;5006048;28;20341;-73
2023/08/17 08:15:18;;;;;;;3.45;1.23;;;19.20;99.90;;;;;;4994044;28;20071;-75
2023/08/17 08:17:44;;;;;;;3.25;0.95;;;19.10;99.90;;;;;;4993886;28;20431;-72
2023/08/17 08:20:11;;;;;;;6.30;1.67;;;19.10;99.90;;;;;;5009231;28;20644;-74
2023/08/17 08:22:37;;;;;;;5.70;1.60;;;19.10;99.90;;;;;;4992942;28;20633;-74
2023/08/17 08:25:05;;;;;;;5.70;1.00;;;19.10;99.90;;;;;;5011971;28;20049;-72
2023/08/17 08:27:32;;;;;;;2.95;0.90;;;19.20;99.90;;;;;;5003676;28;20056;-72
2023/08/17 08:29:58;;;;;;;5.30;1.30;;;19.20;99.90;;;;;;5017747;28;20048;-75
2023/08/17 08:32:25;;;;;;;4.82;1.20;;;19.30;99.90;;;;;;5012389;28;20067;-74
2023/08/17 08:34:51;;;;;;;3.50;0.88;;;19.30;99.90;;;;;;5009489;28;20033;-73
2023/08/17 08:37:17;;;;;;;4.05;1.00;;;19.40;99.90;;;;;;4984519;28;20021;-73
2023/08/17 08:39:51;;;;;;;3.80;0.95;;;19.40;99.90;;;;;;5009705;28;20037;-73
2023/08/17 08:42:22;;;;;;;5.07;1.35;;;19.50;99.90;;;;;;5007478;28;20381;-72
2023/08/17 08:44:50;;;;;;;4.15;0.77;;;19.50;99.90;;;;;;5007313;28;20041;-74
2023/08/17 08:47:17;;;;;;;6.00;1.40;;;19.60;99.90;;;;;;4998299;28;20036;-72
2023/08/17 08:50:04;;;;;;;4.68;0.90;;;19.60;99.90;;;;;;5000002;28;20825;-75
2023/08/17 08:52:42;;;;;;;5.03;1.33;;;19.70;99.90;;;;;;5002583;28;20041;-75
2023/08/17 08:55:17;;;;;;;3.97;1.35;;;19.70;99.90;;;;;;4995219;28;20468;-73
2023/08/17 08:57:44;;;;;;;7.93;4.40;;;19.80;99.90;;;;;;5008522;28;20235;-77
2023/08/17 09:00:12;;;;;;;8.30;5.28;;;19.80;99.90;;;;;;5007655;28;20245;-76
2023/08/17 09:02:39;;;;;;;8.45;2.40;;;19.90;99.90;;;;;;5006925;28;20056;-74
2023/08/17 09:05:07;;;;;;;8.02;1.92;;;20.00;99.90;;;;;;5009874;28;20056;-77
2023/08/17 09:07:35;;;;;;;4.38;1.73;;;20.00;99.90;;;;;;5009518;28;20032;-74
2023/08/17 09:10:03;;;;;;;6.00;1.70;;;20.10;99.90;;;;;;5011042;28;20033;-76
2023/08/17 09:12:30;;;;;;;6.53;1.92;;;20.10;99.90;;;;;;5018243;28;20032;-74
2023/08/17 09:14:57;;;;;;;9.93;3.88;;;20.30;99.90;;;;;;5003341;28;20037;-76
2023/08/17 09:17:27;;;;;;;5.07;2.50;;;20.40;99.90;;;;;;5006848;28;20033;-73
2023/08/17 09:19:54;;;;;;;7.00;3.20;;;20.60;99.90;;;;;;4990706;28;20093;-76
2023/08/17 09:22:25;;;;;;;4.93;2.08;;;20.80;99.90;;;;;;5008349;28;20586;-73
2023/08/17 09:24:52;;;;;;;6.95;2.63;;;21.00;99.90;;;;;;5008875;28;20033;-72
2023/08/17 09:27:18;;;;;;;5.80;2.72;;;21.10;99.90;;;;;;5008514;28;20033;-74
2023/08/17 09:29:45;;;;;;;5.63;2.70;;;21.20;99.90;;;;;;4968476;28;20384;-75
2023/08/17 09:32:14;;;;;;;5.82;2.30;;;21.20;99.90;;;;;;5014298;28;20052;-76
2023/08/17 09:34:43;;;;;;;8.02;2.78;;;21.30;99.90;;;;;;5015493;28;20470;-75
2023/08/17 09:37:12;;;;;;;9.45;3.08;;;21.20;99.90;;;;;;5028684;28;20064;-73
2023/08/17 09:39:38;;;;;;;8.32;3.15;;;21.30;99.90;;;;;;4994524;28;20411;-76
2023/08/17 09:42:05;;;;;;;4.10;2.45;;;21.20;99.90;;;;;;5007160;28;20025;-75
2023/08/17 09:44:34;;;;;;;4.28;1.80;;;21.20;99.90;;;;;;5008164;28;20041;-75
2023/08/17 09:47:01;;;;;;;9.48;3.65;;;21.30;99.90;;;;;;5004866;28;20033;-75
2023/08/17 09:49:32;;;;;;;8.35;3.10;;;21.30;99.90;;;;;;5008192;28;20033;-72
2023/08/17 09:52:04;;;;;;;8.38;2.88;;;21.30;99.90;;;;;;4986791;28;20040;-72
2023/08/17 09:54:31;;;;;;;4.22;2.10;;;21.30;99.90;;;;;;5013741;28;20496;-76
2023/08/17 09:56:58;;;;;;;6.72;3.13;;;21.30;99.90;;;;;;5002308;28;20041;-74
2023/08/17 09:59:25;;;;;;;4.63;2.42;;;21.30;99.90;;;;;;5017741;28;20029;-73
2023/08/17 10:01:52;;;;;;;4.80;2.42;;;21.30;99.90;;;;;;4997210;28;20029;-72
2023/08/17 10:04:23;;;;;;;4.95;2.40;;;21.30;99.90;;;;;;4977081;28;20687;-74
2023/08/17 10:07:03;;;;;;;5.50;2.15;;;21.30;99.90;;;;;;4993948;28;20076;-75
2023/08/17 10:09:35;;;;;;;9.73;3.72;;;21.30;99.90;;;;;;4974013;28;22891;-76
2023/08/17 10:12:08;;;;;;;5.90;2.50;;;21.40;99.90;;;;;;5009845;28;20698;-77
2023/08/17 10:14:46;;;;;;;9.55;3.08;;;21.40;99.90;;;;;;4986521;28;20052;-77
2023/08/17 10:17:19;;;;;;;6.68;3.05;;;21.40;99.90;;;;;;5023990;28;20469;-77
2023/08/17 10:19:59;;;;;;;6.13;2.20;;;21.40;99.90;;;;;;5016775;28;20056;-76
2023/08/17 10:23:00;;;;;;;4.97;2.10;;;21.40;99.90;;;;;;5018069;28;20056;-75
2023/08/17 10:25:30;;;;;;;6.43;2.60;;;21.40;99.90;;;;;;5010168;28;20037;-74
2023/08/17 10:27:58;;;;;;;5.55;2.30;;;21.30;99.90;;;;;;5008291;28;20052;-77
2023/08/17 10:30:25;;;;;;;6.53;2.85;;;21.20;99.90;;;;;;4988042;28;20044;-73
2023/08/17 10:32:51;;;;;;;6.28;3.70;;;21.10;99.90;;;;;;5009594;28;20044;-77
2023/08/17 10:35:18;;;;;;;9.85;4.55;;;21.10;99.90;;;;;;4993380;28;20029;-74
2023/08/17 10:37:45;;;;;;;9.57;4.45;;;21.00;99.90;;;;;;4992887;28;20056;-77
2023/08/17 10:40:11;;;;;;;7.60;3.40;;;21.00;99.90;;;;;;5012057;28;20040;-76
2023/08/17 10:42:38;;;;;;;10.75;4.18;;;21.00;99.90;;;;;;4999735;28;20041;-77
2023/08/17 10:45:27;;;;;;;5.45;2.63;;;21.00;99.90;;;;;;5017855;28;20045;-75
2023/08/17 10:48:27;;;;;;;8.45;3.15;;;21.00;99.90;;;;;;4981035;28;20040;-74
2023/08/17 10:51:02;;;;;;;6.78;3.45;;;21.00;99.90;;;;;;4984863;28;20029;-75
2023/08/17 10:53:38;;;;;;;6.20;2.20;;;21.10;99.90;;;;;;4995451;28;20033;-75
2023/08/17 10:56:08;;;;;;;6.35;2.35;;;21.20;99.90;;;;;;5012088;28;20336;-76
2023/08/17 10:58:35;;;;;;;5.70;2.13;;;21.20;99.90;;;;;;4982613;28;20033;-75
2023/08/17 11:01:01;;;;;;;4.65;2.63;;;21.30;99.90;;;;;;5009642;28;20644;-75
2023/08/17 11:03:28;;;;;;;6.47;3.60;;;21.30;99.90;;;;;;5006955;28;20040;-74
2023/08/17 11:05:56;;;;;;;7.18;2.70;;;21.40;99.90;;;;;;5004711;28;20041;-74
2023/08/17 11:08:23;;;;;;;7.60;2.15;;;21.40;99.90;;;;;;5019205;28;20021;-71
2023/08/17 11:11:09;;;;;;;6.65;2.72;;;21.50;99.90;;;;;;5012674;28;20029;-74
2023/08/17 11:13:43;;;;;;;4.90;2.40;;;21.50;99.90;;;;;;5011516;28;20040;-74
2023/08/17 11:16:11;;;;;;;7.43;2.70;;;21.50;99.90;;;;;;4996133;28;21294;-75
2023/08/17 11:18:37;;;;;;;6.97;3.50;;;21.60;99.90;;;;;;5011184;28;20032;-73
2023/08/17 11:21:09;;;;;;;6.88;4.18;;;21.70;99.90;;;;;;4979237;28;20511;-71
2023/08/17 11:23:37;;;;;;;6.32;3.00;;;21.80;99.90;;;;;;5012334;28;20052;-72
2023/08/17 11:26:04;;;;;;;6.50;2.55;;;21.80;99.90;;;;;;5002923;28;20059;-74
2023/08/17 11:28:36;;;;;;;7.65;3.20;;;21.80;99.90;;;;;;5019154;28;20403;-74
2023/08/17 11:31:05;;;;;;;5.72;3.15;;;21.80;99.90;;;;;;5017349;28;20041;-75
2023/08/17 11:33:32;;;;;;;6.30;3.17;;;21.90;99.90;;;;;;5013427;28;20033;-73
2023/08/17 11:36:00;;;;;;;3.63;1.83;;;21.90;99.90;;;;;;5011336;28;20412;-74
2023/08/17 11:38:30;;;;;;;5.47;2.63;;;22.00;99.90;;;;;;5011517;28;20033;-75
2023/08/17 11:40:58;;;;;;;3.72;2.50;;;22.20;99.90;;;;;;5009811;28;20041;-73
2023/08/17 11:43:26;;;;;;;5.22;2.47;;;22.30;99.90;;;;;;5008156;28;20056;-71
2023/08/17 11:45:54;;;;;;;6.53;2.78;;;22.30;99.90;;;;;;5013858;28;20037;-73
2023/08/17 11:48:20;;;;;;;5.28;2.60;;;22.20;99.90;;;;;;5003042;28;20033;-75
2023/08/17 11:50:49;;;;;;;4.93;2.33;;;22.10;99.90;;;;;;5019076;28;20029;-73
2023/08/17 11:53:15;;;;;;;7.75;2.83;;;22.10;99.90;;;;;;5014398;28;20375;-73
2023/08/17 11:55:41;;;;;;;6.22;2.83;;;22.00;99.90;;;;;;4992912;28;20040;-74
2023/08/17 11:58:08;;;;;;;6.75;2.80;;;21.80;99.90;;;;;;5010723;28;20040;-74
2023/08/17 12:00:41;;;;;;;6.72;3.20;;;21.70;99.90;;;;;;4992737;28;20507;-72
2023/08/17 12:03:07;;;;;;;4.97;2.42;;;21.70;99.90;;;;;;5010017;28;20047;-73
2023/08/17 12:05:35;;;;;;;8.57;2.95;;;21.70;99.90;;;;;;4973291;28;20056;-74
2023/08/17 12:08:02;;;;;;;5.07;2.50;;;21.70;99.90;;;;;;5012277;28;20033;-72
2023/08/17 12:10:34;;;;;;;5.30;3.60;;;21.70;99.90;;;;;;5003077;28;20662;-75
2023/08/17 12:13:01;;;;;;;5.00;3.53;;;21.70;99.90;;;;;;4999504;28;20040;-74
2023/08/17 12:15:32;;;;;;;7.50;3.70;;;21.60;99.90;;;;;;5013585;28;20034;-73
2023/08/17 12:18:01;;;;;;;6.35;3.28;;;21.60;99.90;;;;;;5011566;28;20037;-74
2023/08/17 12:20:29;;;;;;;6.10;2.65;;;21.50;99.90;;;;;;4993395;28;20040;-73
2023/08/17 12:22:59;;;;;;;6.78;3.45;;;21.60;99.90;;;;;;5010196;28;20047;-74
2023/08/17 12:25:26;;;;;;;5.93;3.50;;;21.60;99.90;;;;;;5010961;28;20029;-74
2023/08/17 12:27:52;;;;;;;4.55;2.63;;;21.70;99.90;;;;;;4992703;28;20040;-71
2023/08/17 12:30:36;;;;;;;9.48;4.80;;;21.60;99.90;;;;;;5028940;28;20029;-74
2023/08/17 12:33:02;;;;;;;6.30;2.97;;;21.70;99.90;;;;;;5018222;28;20036;-72
2023/08/17 12:35:31;;;;;;;3.92;2.58;;;21.60;99.90;;;;;;5001453;28;20032;-73
2023/08/17 12:37:57;;;;;;;6.22;2.72;;;21.60;99.90;;;;;;4994124;28;20032;-74
2023/08/17 12:40:24;;;;;;;8.00;3.58;;;21.60;99.90;;;;;;5010079;28;20021;-71
2023/08/17 12:42:50;;;;;;;5.75;2.25;;;21.70;99.90;;;;;;5011252;28;20034;-73
2023/08/17 12:45:17;;;;;;;6.65;3.35;;;21.80;99.90;;;;;;4991933;28;20041;-72
2023/08/17 12:47:43;;;;;;;8.60;5.13;;;21.80;99.90;;;;;;4990948;28;20040;-73
2023/08/17 12:50:10;;;;;;;7.35;4.60;;;21.90;99.90;;;;;;4992883;28;20037;-71
2023/08/17 12:52:37;;;;;;;6.97;3.15;;;21.90;99.90;;;;;;5014893;28;20602;-75